Time;durP1;ratioP1;P1;durP2;ratioP2;P2;SDS_P1;SDS_P2;PMS_P1;PMS_P2;Temp;Humidity;BMP_temperature;BMP_pressure;BME280_temperature;BME280_humidity;BME280_pressure;Samples;Min_cycle;Max_cycle;Signal;HPM_P1;HPM_P2
2022/10/07 00:01:48;;;;;;;0.75;0.17;;;;;;;21.17;100.00;100215.31;7393462;19;20023;-59
2022/10/07 00:04:14;;;;;;;0.40;0.25;;;;;;;21.24;100.00;100220.38;7393730;19;20027;-59
2022/10/07 00:06:40;;;;;;;16.13;1.20;;;;;;;21.33;100.00;100211.47;7391997;19;20015;-59
2022/10/07 00:09:07;;;;;;;0.45;0.20;;;;;;;21.31;100.00;100226.16;7392458;19;20344;-59
2022/10/07 00:11:33;;;;;;;3.25;1.30;;;;;;;21.48;100.00;100220.22;7392825;19;20017;-59
2022/10/07 00:14:02;;;;;;;0.30;0.20;;;;;;;21.45;100.00;100218.44;7396947;19;20014;-59
2022/10/07 00:16:31;;;;;;;1.52;0.52;;;;;;;21.59;100.00;100200.91;7393768;19;20023;-59
2022/10/07 00:18:59;;;;;;;0.28;0.28;;;;;;;21.68;100.00;100205.38;7393011;19;20074;-59
2022/10/07 00:21:28;;;;;;;2.38;0.52;;;;;;;21.70;100.00;100191.47;7391486;19;20035;-59
2022/10/07 00:23:54;;;;;;;4.75;0.35;;;;;;;21.59;100.00;100189.56;7392716;19;20743;-59
2022/10/07 00:26:23;;;;;;;5.78;0.45;;;;;;;21.44;100.00;100197.09;7392659;19;20018;-59
2022/10/07 00:28:50;;;;;;;0.50;0.10;;;;;;;21.40;100.00;100188.13;7392531;19;20018;-59
2022/10/07 00:31:20;;;;;;;4.90;0.43;;;;;;;21.32;100.00;100184.41;7392435;19;20515;-59
2022/10/07 00:33:47;;;;;;;0.00;0.00;;;;;;;21.30;100.00;100178.53;7390962;19;20463;-59
2022/10/07 00:36:22;;;;;;;1.98;1.00;;;;;;;21.01;100.00;100186.72;7391018;19;20010;-59
2022/10/07 00:38:59;;;;;;;0.10;0.10;;;;;;;19.63;100.00;100168.81;7391417;19;20609;-59
2022/10/07 00:41:29;;;;;;;0.30;0.10;;;;;;;20.59;100.00;100172.72;7390938;19;20027;-59
2022/10/07 00:43:55;;;;;;;0.10;0.10;;;;;;;20.65;100.00;100174.19;7395886;19;20754;-60
2022/10/07 00:46:34;;;;;;;1.10;0.32;;;;;;;20.49;100.00;100158.19;7390646;19;20015;-60
2022/10/07 00:49:05;;;;;;;12.35;0.57;;;;;;;21.04;100.00;100165.84;7392018;19;20017;-59
2022/10/07 00:51:33;;;;;;;0.10;0.10;;;;;;;20.99;100.00;100172.34;7391608;19;20014;-59
2022/10/07 00:54:03;;;;;;;1.70;0.17;;;;;;;21.08;100.00;100157.78;7391909;19;20010;-59
2022/10/07 00:56:30;;;;;;;0.10;0.10;;;;;;;20.96;100.00;100161.34;7392084;19;20339;-59
2022/10/07 00:59:00;;;;;;;0.10;0.10;;;;;;;21.01;100.00;100157.63;7388264;19;20034;-59
2022/10/07 01:01:30;;;;;;;0.10;0.10;;;;;;;20.98;100.00;100153.84;7391826;19;20018;-59
2022/10/07 01:03:56;;;;;;;0.25;0.25;;;;;;;21.01;100.00;100152.72;7391526;19;20025;-59
2022/10/07 01:06:23;;;;;;;0.52;0.45;;;;;;;20.11;100.00;100156.66;7390194;19;20037;-60
2022/10/07 01:08:51;;;;;;;2.63;0.75;;;;;;;20.78;100.00;100156.47;7390103;19;20032;-60
2022/10/07 01:11:33;;;;;;;4.57;0.38;;;;;;;20.61;100.00;100148.25;7390533;19;20471;-59
2022/10/07 01:14:15;;;;;;;2.10;0.47;;;;;;;20.37;100.00;100145.53;7393525;19;20083;-59
2022/10/07 01:17:07;;;;;;;0.82;0.45;;;;;;;15.04;100.00;100151.38;7390108;19;20507;-59
2022/10/07 01:20:00;;;;;;;0.90;0.45;;;;;;;16.71;100.00;100149.25;7389656;19;20014;-60
2022/10/07 01:22:52;;;;;;;0.77;0.55;;;;;;;18.18;100.00;100140.22;7389390;19;20014;-59
2022/10/07 01:26:05;;;;;;;0.30;0.00;;;;;;;18.48;100.00;100129.78;7394072;19;20100;-59
2022/10/07 01:28:45;;;;;;;12.68;0.32;;;;;;;19.13;100.00;100137.47;7395318;19;20019;-59
2022/10/07 01:31:16;;;;;;;0.10;0.10;;;;;;;19.16;100.00;100131.53;7389398;19;20385;-59
2022/10/07 01:33:45;;;;;;;0.10;0.00;;;;;;;18.15;100.00;100127.16;7389474;19;20098;-59
2022/10/07 01:36:15;;;;;;;0.47;0.10;;;;;;;17.97;100.00;100120.09;7388635;19;20356;-59
2022/10/07 01:38:48;;;;;;;0.63;0.52;;;;;;;20.17;100.00;100123.41;7388325;19;20046;-59
2022/10/07 01:41:17;;;;;;;0.98;0.50;;;;;;;20.32;100.00;100109.59;7389761;19;20526;-60
2022/10/07 01:43:45;;;;;;;0.25;0.25;;;;;;;20.07;100.00;100102.47;7394422;19;20035;-59
2022/10/07 01:46:19;;;;;;;10.48;1.10;;;;;;;20.16;100.00;100102.09;7388383;19;20507;-59
2022/10/07 01:48:46;;;;;;;4.28;0.32;;;;;;;20.24;100.00;100091.72;7387034;19;20468;-59
2022/10/07 01:51:13;;;;;;;0.32;0.20;;;;;;;20.41;100.00;100083.75;7388747;19;20033;-59
2022/10/07 01:53:43;;;;;;;9.43;0.30;;;;;;;20.34;100.00;100078.69;7388866;19;20014;-59
2022/10/07 01:56:30;;;;;;;0.22;0.10;;;;;;;20.51;100.00;100070.69;7388322;19;20018;-60
2022/10/07 01:59:18;;;;;;;3.88;0.20;;;;;;;20.29;100.00;100076.72;7387535;19;20015;-59
2022/10/07 02:02:02;;;;;;;17.33;0.75;;;;;;;20.21;100.00;100064.50;7388692;19;20014;-59
2022/10/07 02:04:35;;;;;;;0.10;0.10;;;;;;;20.42;100.00;100056.22;7387734;19;20018;-59
2022/10/07 02:07:04;;;;;;;0.10;0.00;;;;;;;20.53;100.00;100056.78;7389050;19;20015;-59
2022/10/07 02:09:44;;;;;;;1.45;0.45;;;;;;;20.38;100.00;100051.63;7387134;19;20570;-59
2022/10/07 02:12:20;;;;;;;2.17;0.13;;;;;;;20.54;100.00;100052.66;7393142;19;20011;-60
2022/10/07 02:15:02;;;;;;;0.65;0.55;;;;;;;20.70;100.00;100045.97;7397071;19;20010;-59
2022/10/07 02:17:33;;;;;;;0.25;0.20;;;;;;;20.96;100.00;100028.25;7398701;19;20014;-59
2022/10/07 02:20:04;;;;;;;3.40;0.40;;;;;;;20.79;100.00;100034.19;7394369;19;20010;-60
2022/10/07 02:22:33;;;;;;;0.10;0.10;;;;;;;20.27;100.00;100029.16;7397450;19;20006;-59
2022/10/07 02:24:59;;;;;;;1.55;0.55;;;;;;;19.34;100.00;100023.53;7398912;19;20015;-59
2022/10/07 02:27:33;;;;;;;0.10;0.10;;;;;;;19.21;100.00;100009.28;7397190;19;20035;-59
2022/10/07 02:30:08;;;;;;;1.65;0.40;;;;;;;19.50;100.00;100008.44;7394014;19;20035;-59
2022/10/07 02:32:38;;;;;;;0.47;0.20;;;;;;;20.07;100.00;100003.50;7393972;19;20341;-60
2022/10/07 02:35:13;;;;;;;0.10;0.00;;;;;;;20.38;100.00;100005.59;7394341;19;20082;-59
2022/10/07 02:37:42;;;;;;;0.30;0.20;;;;;;;20.65;100.00;99995.88;7396993;19;20010;-59
2022/10/07 02:40:08;;;;;;;4.53;0.30;;;;;;;20.60;100.00;99993.91;7394165;19;20030;-58
2022/10/07 02:42:41;;;;;;;0.10;0.10;;;;;;;20.79;100.00;99997.41;7396602;19;20432;-59
2022/10/07 02:45:35;;;;;;;1.23;0.70;;;;;;;20.57;100.00;99995.00;7394201;19;20010;-59
2022/10/07 02:48:14;;;;;;;1.23;0.70;;;;;;;20.54;100.00;100006.63;7398201;19;20021;-59
2022/10/07 02:50:46;;;;;;;0.10;0.10;;;;;;;20.63;100.00;100006.97;7394134;19;20468;-59
2022/10/07 02:53:14;;;;;;;0.30;0.30;;;;;;;20.94;100.00;99994.78;7394130;19;20022;-59
2022/10/07 02:55:42;;;;;;;0.17;0.17;;;;;;;21.17;100.00;99983.06;7395904;19;20014;-59
2022/10/07 02:58:11;;;;;;;0.10;0.00;;;;;;;21.12;100.00;99979.78;7397808;19;20015;-59
2022/10/07 03:00:45;;;;;;;1.63;0.35;;;;;;;19.23;100.00;99989.75;7391260;19;20010;-59
2022/10/07 03:03:12;;;;;;;0.95;0.20;;;;;;;18.92;100.00;99973.44;7394792;19;20011;-59
2022/10/07 03:05:48;;;;;;;0.10;0.10;;;;;;;18.98;100.00;99976.97;7393698;19;20774;-59
2022/10/07 03:08:15;;;;;;;0.10;0.10;;;;;;;18.49;100.00;99978.25;7399458;19;20035;-59
2022/10/07 03:10:42;;;;;;;0.10;0.10;;;;;;;19.21;100.00;99969.75;7395385;19;20755;-59
2022/10/07 03:13:10;;;;;;;0.47;0.43;;;;;;;18.76;100.00;99963.09;7396871;19;20017;-59
2022/10/07 03:15:40;;;;;;;0.10;0.10;;;;;;;18.80;100.00;99964.34;7394190;19;20011;-59
2022/10/07 03:18:24;;;;;;;0.40;0.40;;;;;;;18.78;100.00;99949.22;7398114;19;20023;-59
2022/10/07 03:20:57;;;;;;;3.70;0.05;;;;;;;18.09;100.00;99946.03;7391149;19;20015;-59
2022/10/07 03:23:24;;;;;;;0.17;0.17;;;;;;;18.07;100.00;99942.97;7393127;19;20007;-59
2022/10/07 03:25:52;;;;;;;1.50;0.75;;;;;;;18.73;100.00;99935.97;7398042;19;20006;-59
2022/10/07 03:28:21;;;;;;;9.35;0.70;;;;;;;19.38;100.00;99939.25;7397660;19;20006;-59
2022/10/07 03:30:48;;;;;;;0.85;0.30;;;;;;;18.97;100.00;99935.94;7395651;19;20032;-60
2022/10/07 03:33:15;;;;;;;0.10;0.03;;;;;;;19.01;100.00;99944.88;7393410;19;20019;-59
2022/10/07 03:35:42;;;;;;;0.10;0.10;;;;;;;19.29;100.00;99939.63;7393199;19;20010;-59
2022/10/07 03:38:09;;;;;;;0.17;0.17;;;;;;;19.47;100.00;99933.22;7396254;19;20015;-59
2022/10/07 03:40:37;;;;;;;0.55;0.20;;;;;;;19.50;100.00;99923.69;7390750;19;20511;-59
2022/10/07 03:43:04;;;;;;;1.10;0.52;;;;;;;19.66;100.00;99936.78;7395057;19;20010;-59
2022/10/07 03:45:31;;;;;;;2.00;1.15;;;;;;;19.60;100.00;99929.69;7391831;19;20132;-60
2022/10/07 03:47:58;;;;;;;7.03;0.68;;;;;;;19.32;100.00;99929.28;7396827;19;20449;-60
2022/10/07 03:50:25;;;;;;;1.00;0.70;;;;;;;18.81;100.00;99928.41;7391935;19;20010;-59
2022/10/07 03:52:52;;;;;;;0.63;0.40;;;;;;;18.62;100.00;99921.97;7392291;19;20017;-60
2022/10/07 03:55:18;;;;;;;1.75;0.47;;;;;;;18.54;100.00;99923.84;7392828;19;20013;-60
2022/10/07 03:57:52;;;;;;;0.77;0.43;;;;;;;18.13;100.00;99915.50;7396475;19;20014;-60
2022/10/07 04:00:22;;;;;;;6.45;0.40;;;;;;;18.02;100.00;99919.19;7390670;19;20458;-60
2022/10/07 04:02:52;;;;;;;0.82;0.73;;;;;;;18.72;100.00;99906.97;7390980;19;20078;-59
2022/10/07 04:05:20;;;;;;;4.03;1.10;;;;;;;13.59;100.00;99920.91;7391727;19;20010;-59
2022/10/07 04:07:48;;;;;;;0.10;0.10;;;;;;;18.39;100.00;99917.81;7391742;19;20017;-59
2022/10/07 04:10:17;;;;;;;0.10;0.10;;;;;;;17.97;100.00;99917.19;7391534;19;20495;-60
2022/10/07 04:12:46;;;;;;;0.20;0.15;;;;;;;17.15;100.00;99916.41;7393929;19;20418;-59
2022/10/07 04:15:13;;;;;;;0.63;0.50;;;;;;;12.88;100.00;99916.03;7390024;19;20502;-60
2022/10/07 04:17:43;;;;;;;0.10;0.10;;;;;;;12.07;100.00;99915.16;7393462;19;20086;-59
2022/10/07 04:20:11;;;;;;;0.68;0.30;;;;;;;12.07;100.00;99921.53;7390287;19;20023;-59
2022/10/07 04:22:37;;;;;;;1.35;0.40;;;;;;;11.94;100.00;99912.69;7392727;19;20052;-59
2022/10/07 04:27:52;;;;;;;0.20;0.10;;;;;;;12.09;100.00;99910.63;7392883;19;20025;-60
2022/10/07 04:30:22;;;;;;;0.20;0.20;;;;;;;12.42;100.00;99906.78;7393231;19;20014;-60
2022/10/07 04:32:49;;;;;;;0.30;0.20;;;;;;;12.25;100.00;99898.19;7390628;19;20018;-59
2022/10/07 04:35:18;;;;;;;0.82;0.35;;;;;;;15.73;100.00;99885.28;7390627;19;20505;-60
2022/10/07 04:37:47;;;;;;;5.57;0.32;;;;;;;17.24;100.00;99885.16;7395313;19;20015;-59
2022/10/07 04:40:14;;;;;;;0.10;0.00;;;;;;;17.40;100.00;99889.16;7386978;19;20074;-59
2022/10/07 04:45:28;;;;;;;0.55;0.55;;;;;;;18.04;100.00;99887.66;7388418;19;20385;-60
2022/10/07 04:47:54;;;;;;;2.72;0.43;;;;;;;18.22;100.00;99891.84;7390961;19;20077;-59
2022/10/07 04:50:20;;;;;;;6.13;0.30;;;;;;;17.29;100.00;99898.44;7387561;19;20081;-59
2022/10/07 04:52:47;;;;;;;0.10;0.10;;;;;;;18.56;100.00;99893.06;7389862;19;20011;-59
2022/10/07 04:55:14;;;;;;;1.67;0.28;;;;;;;18.31;100.00;99894.31;7388910;19;20035;-59
2022/10/07 04:57:42;;;;;;;6.07;0.20;;;;;;;18.96;100.00;99891.28;7391673;19;20026;-59
2022/10/07 05:00:09;;;;;;;3.25;0.55;;;;;;;17.23;100.00;99894.13;7387633;19;20006;-59
2022/10/07 05:02:36;;;;;;;0.15;0.15;;;;;;;13.25;100.00;99891.06;7390448;19;20014;-59
2022/10/07 05:05:03;;;;;;;0.10;0.10;;;;;;;12.54;100.00;99897.31;7391633;19;20010;-59
2022/10/07 05:07:31;;;;;;;1.65;0.73;;;;;;;12.34;100.00;99888.91;7392431;19;20011;-60
2022/10/07 05:09:58;;;;;;;0.93;0.32;;;;;;;12.11;100.00;99888.59;7389754;19;20010;-60
2022/10/07 05:12:25;;;;;;;0.10;0.10;;;;;;;15.63;100.00;99881.22;7391634;19;20074;-59
2022/10/07 05:14:51;;;;;;;1.30;0.17;;;;;;;18.03;100.00;99858.72;7389491;19;20003;-59
2022/10/07 05:17:19;;;;;;;0.10;0.10;;;;;;;17.07;100.00;99864.00;7392350;19;20011;-59
2022/10/07 05:19:45;;;;;;;0.35;0.35;;;;;;;17.19;100.00;99855.00;7387840;19;20049;-59
2022/10/07 05:22:11;;;;;;;0.40;0.40;;;;;;;16.94;100.00;99849.75;7391321;19;20494;-59
2022/10/07 05:24:38;;;;;;;0.50;0.40;;;;;;;17.33;100.00;99856.69;7392064;19;20022;-59
2022/10/07 05:27:05;;;;;;;0.17;0.17;;;;;;;17.64;100.00;99855.47;7390477;19;20015;-60
2022/10/07 05:29:31;;;;;;;0.10;0.10;;;;;;;17.80;100.00;99848.91;7388747;19;20333;-59
2022/10/07 05:31:58;;;;;;;0.10;0.10;;;;;;;17.83;100.00;99845.06;7390130;19;20022;-59
2022/10/07 05:34:25;;;;;;;0.10;0.00;;;;;;;17.73;100.00;99832.63;7388207;19;20010;-59
2022/10/07 05:36:53;;;;;;;1.55;0.40;;;;;;;17.86;100.00;99838.38;7390594;19;20011;-59
2022/10/07 05:39:19;;;;;;;0.10;0.10;;;;;;;17.98;100.00;99831.34;7387089;19;20018;-59
2022/10/07 05:41:51;;;;;;;0.10;0.10;;;;;;;18.33;100.00;99824.81;7389423;19;20102;-59
2022/10/07 05:44:22;;;;;;;13.82;0.55;;;;;;;18.50;100.00;99830.28;7388625;19;20011;-59
2022/10/07 05:46:50;;;;;;;0.47;0.20;;;;;;;18.51;100.00;99817.72;7388465;19;20120;-59
2022/10/07 05:49:17;;;;;;;0.10;0.10;;;;;;;18.31;100.00;99823.81;7388505;19;20029;-59
2022/10/07 05:51:44;;;;;;;0.15;0.15;;;;;;;18.39;100.00;99819.13;7388219;19;20082;-59
2022/10/07 05:54:11;;;;;;;0.10;0.10;;;;;;;18.45;100.00;99817.03;7388797;19;20023;-59
2022/10/07 05:56:41;;;;;;;0.75;0.40;;;;;;;18.04;100.00;99820.78;7388165;19;20478;-58
2022/10/07 05:59:07;;;;;;;2.33;0.65;;;;;;;18.06;100.00;99818.19;7387953;19;20015;-59
2022/10/07 06:01:35;;;;;;;7.88;0.65;;;;;;;17.71;100.00;99825.97;7388455;19;20011;-59
2022/10/07 06:04:07;;;;;;;0.57;0.45;;;;;;;17.57;100.00;99827.88;7387817;19;20050;-59
2022/10/07 06:06:35;;;;;;;0.20;0.20;;;;;;;13.20;100.00;99822.63;7389034;19;20007;-59
2022/10/07 06:14:38;;;;;;;6.82;0.73;;;;;;;17.64;100.00;99809.63;7386343;19;20022;-59
2022/10/07 06:17:06;;;;;;;1.55;0.65;;;;;;;18.01;100.00;99816.22;7388734;19;20026;-59
2022/10/07 06:19:32;;;;;;;5.47;0.80;;;;;;;18.42;100.00;99809.59;7386715;19;20629;-59
2022/10/07 06:22:01;;;;;;;1.73;0.68;;;;;;;18.32;100.00;99811.28;7387625;19;20003;-59
2022/10/07 06:24:27;;;;;;;0.10;0.10;;;;;;;18.48;100.00;99807.50;7389000;19;20095;-59
2022/10/07 06:26:54;;;;;;;1.27;0.50;;;;;;;18.39;100.00;99805.00;7388521;19;20102;-59
2022/10/07 06:29:21;;;;;;;0.85;0.57;;;;;;;18.32;100.00;99803.56;7386086;19;20028;-59
2022/10/07 06:31:47;;;;;;;1.38;0.75;;;;;;;18.42;100.00;99809.59;7386704;19;20003;-59
2022/10/07 06:34:14;;;;;;;2.63;1.08;;;;;;;18.58;100.00;99806.59;7386166;19;20351;-59
2022/10/07 06:36:41;;;;;;;4.85;0.45;;;;;;;18.44;100.00;99801.38;7388396;19;20058;-59
2022/10/07 06:39:07;;;;;;;1.25;0.25;;;;;;;18.54;100.00;99799.72;7388573;19;20011;-59
2022/10/07 06:41:38;;;;;;;0.10;0.10;;;;;;;18.68;100.00;99795.72;7386595;19;20018;-60
2022/10/07 06:44:29;;;;;;;0.40;0.40;;;;;;;18.40;100.00;99789.63;7388067;19;20047;-59
2022/10/07 06:46:56;;;;;;;4.68;0.40;;;;;;;18.35;100.00;99787.63;7388721;19;20345;-59
2022/10/07 06:49:22;;;;;;;0.35;0.35;;;;;;;18.35;100.00;99787.63;7386612;19;20018;-60
2022/10/07 06:51:49;;;;;;;0.40;0.17;;;;;;;18.48;100.00;99790.59;7386032;19;20070;-59
2022/10/07 06:54:15;;;;;;;0.93;0.40;;;;;;;18.05;100.00;99787.72;7388511;19;20026;-59
2022/10/07 06:56:42;;;;;;;3.05;0.73;;;;;;;17.98;100.00;99786.25;7388251;19;20348;-59
2022/10/07 06:59:09;;;;;;;0.90;0.30;;;;;;;17.72;100.00;99794.44;7391743;19;20484;-59
2022/10/07 07:01:43;;;;;;;0.20;0.20;;;;;;;17.78;100.00;99778.25;7393782;19;20431;-59
2022/10/07 07:04:09;;;;;;;3.33;0.50;;;;;;;17.48;100.00;99766.22;7394468;19;20017;-59
2022/10/07 07:06:37;;;;;;;0.85;0.63;;;;;;;17.82;100.00;99764.63;7394145;19;20014;-59
2022/10/07 07:09:05;;;;;;;0.20;0.20;;;;;;;17.44;100.00;99765.75;7393587;19;20038;-59
2022/10/07 07:11:39;;;;;;;0.28;0.25;;;;;;;17.93;100.00;99769.41;7393909;19;20031;-59
2022/10/07 07:14:19;;;;;;;0.88;0.10;;;;;;;17.81;100.00;99765.94;7393294;19;20275;-59
2022/10/07 07:16:52;;;;;;;0.17;0.17;;;;;;;18.04;100.00;99774.94;7394874;19;20416;-59
2022/10/07 07:19:19;;;;;;;0.73;0.73;;;;;;;18.06;100.00;99767.47;7392645;19;20325;-59
2022/10/07 07:21:45;;;;;;;2.15;1.02;;;;;;;18.13;100.00;99769.69;7395069;19;20017;-59
2022/10/07 07:24:15;;;;;;;8.10;1.35;;;;;;;18.12;100.00;99770.22;7393844;19;20732;-59
2022/10/07 07:26:42;;;;;;;0.10;0.10;;;;;;;18.24;100.00;99760.34;7393471;19;20027;-59
2022/10/07 07:29:11;;;;;;;0.40;0.40;;;;;;;18.13;100.00;99766.88;7392198;19;20006;-59
2022/10/07 07:31:44;;;;;;;1.42;1.17;;;;;;;18.73;100.00;99761.78;7393277;19;20014;-59
2022/10/07 07:34:12;;;;;;;0.20;0.10;;;;;;;18.78;100.00;99757.34;7393759;19;20021;-59
2022/10/07 07:36:45;;;;;;;0.75;0.35;;;;;;;18.12;100.00;99756.13;7393943;19;20007;-59
2022/10/07 07:39:16;;;;;;;0.30;0.17;;;;;;;19.23;100.00;99761.03;7396805;19;20015;-59
2022/10/07 07:41:46;;;;;;;0.93;0.15;;;;;;;19.49;100.00;99757.56;7392178;19;20035;-59
2022/10/07 07:44:16;;;;;;;0.35;0.35;;;;;;;19.60;100.00;99735.50;7392370;19;20017;-58
2022/10/07 07:46:51;;;;;;;0.20;0.20;;;;;;;19.52;100.00;99748.78;7393489;19;20411;-60
2022/10/07 07:49:19;;;;;;;0.28;0.28;;;;;;;19.75;100.00;99740.63;7393085;19;20015;-60
2022/10/07 07:51:46;;;;;;;0.57;0.30;;;;;;;19.55;100.00;99744.88;7392424;19;20082;-60
2022/10/07 07:54:18;;;;;;;0.65;0.47;;;;;;;19.70;100.00;99749.22;7391938;19;20021;-60
2022/10/07 07:56:46;;;;;;;0.10;0.10;;;;;;;19.72;100.00;99746.63;7393348;19;20014;-59
2022/10/07 07:59:13;;;;;;;0.10;0.10;;;;;;;19.46;100.00;99750.94;7391772;19;20114;-59
2022/10/07 08:01:44;;;;;;;14.90;2.08;;;;;;;19.87;100.00;99741.97;7392472;19;20018;-59
2022/10/07 08:04:12;;;;;;;0.30;0.30;;;;;;;19.99;100.00;99753.84;7391804;19;20011;-60
2022/10/07 08:06:39;;;;;;;0.80;0.43;;;;;;;19.68;100.00;99742.03;7391715;19;20020;-60
2022/10/07 08:09:06;;;;;;;0.15;0.15;;;;;;;19.51;100.00;99749.31;7390498;19;20826;-60
2022/10/07 08:11:34;;;;;;;0.32;0.32;;;;;;;19.98;100.00;99735.34;7391765;19;20029;-60
2022/10/07 08:14:02;;;;;;;0.10;0.10;;;;;;;20.07;100.00;99740.56;7396228;19;20021;-60
2022/10/07 08:16:30;;;;;;;3.08;0.65;;;;;;;20.19;100.00;99733.38;7392174;19;20015;-59
2022/10/07 08:18:58;;;;;;;1.05;0.22;;;;;;;20.37;100.00;99738.94;7391067;19;20010;-59
2022/10/07 08:21:31;;;;;;;0.20;0.15;;;;;;;20.34;100.00;99733.59;7391383;19;20007;-59
2022/10/07 08:23:59;;;;;;;0.95;0.38;;;;;;;20.48;100.00;99729.44;7391303;19;20038;-59
2022/10/07 08:26:30;;;;;;;;;;;;;;;20.85;100.00;99731.97;7391358;19;20355;-60
2022/10/07 08:28:58;;;;;;;0.30;0.10;;;;;;;20.39;100.00;99725.00;7391032;19;19924;-59
2022/10/07 08:31:29;;;;;;;0.55;0.55;;;;;;;20.60;100.00;99739.22;7390496;19;20014;-59
2022/10/07 08:33:57;;;;;;;11.53;0.53;;;;;;;20.10;100.00;99733.81;7389703;19;20023;-59
2022/10/07 08:36:25;;;;;;;0.13;0.10;;;;;;;19.98;100.00;99741.00;7392603;19;20003;-60
2022/10/07 08:38:52;;;;;;;3.83;0.60;;;;;;;15.25;100.00;99739.56;7392059;19;20519;-60
2022/10/07 08:41:24;;;;;;;0.70;0.32;;;;;;;14.70;100.00;99748.72;7390339;19;20014;-59
2022/10/07 08:43:51;;;;;;;1.15;0.65;;;;;;;14.49;100.00;99738.97;7393892;19;20010;-59
2022/10/07 08:46:21;;;;;;;5.43;0.30;;;;;;;14.52;100.00;99751.97;7390863;19;20011;-59
2022/10/07 08:49:02;;;;;;;0.10;0.10;;;;;;;19.52;100.00;99754.41;7392155;19;20006;-59
2022/10/07 08:51:38;;;;;;;0.40;0.22;;;;;;;20.46;100.00;99742.63;7391964;19;20018;-60
2022/10/07 08:54:04;;;;;;;2.97;0.38;;;;;;;20.64;100.00;99750.94;7391581;19;20025;-61
2022/10/07 08:56:32;;;;;;;0.30;0.22;;;;;;;21.03;100.00;99736.69;7393226;19;20099;-61
2022/10/07 08:59:23;;;;;;;0.10;0.10;;;;;;;21.56;100.00;99730.75;7393568;19;20021;-61
2022/10/07 09:01:49;;;;;;;;;;;;;;;21.67;100.00;99733.31;7394298;19;20360;-61
2022/10/07 09:04:30;;;;;;;2.30;0.32;;;;;;;21.98;100.00;99720.91;7390876;19;19926;-61
2022/10/07 09:07:10;;;;;;;0.20;0.10;;;;;;;22.13;100.00;99715.31;7391189;19;20010;-61
2022/10/07 09:09:43;;;;;;;0.47;0.30;;;;;;;22.40;100.00;99727.91;7389774;19;20446;-61
2022/10/07 09:12:21;;;;;;;0.15;0.00;;;;;;;22.30;100.00;99715.59;7391412;19;20014;-61
2022/10/07 09:14:51;;;;;;;0.10;0.10;;;;;;;22.05;100.00;99711.66;7388737;19;20568;-61
2022/10/07 09:17:27;;;;;;;0.20;0.10;;;;;;;21.84;100.00;99723.06;7392631;19;20017;-59
2022/10/07 09:20:01;;;;;;;1.98;0.30;;;;;;;21.70;100.00;99715.19;7386420;19;20014;-59
2022/10/07 09:22:36;;;;;;;8.20;0.40;;;;;;;22.06;100.00;99706.75;7390259;19;20016;-60
2022/10/07 09:25:12;;;;;;;0.10;0.03;;;;;;;22.22;100.00;99706.25;7393210;19;20015;-60
2022/10/07 09:27:38;;;;;;;6.85;0.30;;;;;;;22.02;100.00;99698.59;7393963;19;20014;-60
2022/10/07 09:30:05;;;;;;;2.78;0.50;;;;;;;22.41;100.00;99701.06;7390563;19;20024;-60
2022/10/07 09:32:34;;;;;;;0.45;0.45;;;;;;;22.50;100.00;99702.63;7390184;19;20086;-60
2022/10/07 09:35:04;;;;;;;0.47;0.22;;;;;;;22.56;100.00;99701.13;7390167;19;20027;-60
2022/10/07 09:37:31;;;;;;;0.63;0.28;;;;;;;22.60;100.00;99695.88;7390685;19;20411;-60
2022/10/07 09:40:21;;;;;;;1.35;0.52;;;;;;;22.04;100.00;99684.63;7387421;19;20022;-60
2022/10/07 09:42:48;;;;;;;1.27;0.10;;;;;;;22.24;100.00;99675.25;7390677;19;20018;-60
2022/10/07 09:45:20;;;;;;;0.20;0.10;;;;;;;22.41;100.00;99680.44;7388680;19;20049;-60
2022/10/07 09:47:51;;;;;;;5.00;0.40;;;;;;;22.51;100.00;99675.72;7392503;19;20007;-60
2022/10/07 09:50:39;;;;;;;0.08;0.00;;;;;;;22.44;100.00;99671.53;7390121;19;20034;-60
2022/10/07 09:53:22;;;;;;;0.30;0.20;;;;;;;22.42;100.00;99679.88;7388510;19;20015;-59
2022/10/07 09:55:51;;;;;;;0.20;0.20;;;;;;;22.43;100.00;99678.56;7390135;19;20010;-60
2022/10/07 09:58:26;;;;;;;1.27;0.10;;;;;;;22.11;100.00;99683.16;7393043;19;20030;-60
2022/10/07 10:00:55;;;;;;;0.52;0.20;;;;;;;21.87;100.00;99679.41;7387389;19;20598;-60
2022/10/07 10:03:32;;;;;;;1.58;0.20;;;;;;;21.87;100.00;99681.50;7390249;19;20038;-60
2022/10/07 10:06:01;;;;;;;0.15;0.15;;;;;;;21.97;100.00;99671.16;7389528;19;20006;-60
2022/10/07 10:08:33;;;;;;;0.50;0.43;;;;;;;21.75;100.00;99681.03;7393443;19;20015;-60
2022/10/07 10:11:05;;;;;;;5.05;0.30;;;;;;;21.62;100.00;99672.63;7389241;19;20101;-60
2022/10/07 10:13:33;;;;;;;0.45;0.28;;;;;;;21.94;100.00;99668.69;7393684;19;20522;-60
2022/10/07 10:16:01;;;;;;;0.00;0.00;;;;;;;22.07;100.00;99662.91;7388985;19;20464;-60
2022/10/07 10:18:34;;;;;;;1.20;0.25;;;;;;;21.97;100.00;99656.97;7394023;19;20022;-60
2022/10/07 10:21:14;;;;;;;1.15;0.45;;;;;;;21.91;100.00;99659.22;7387988;19;20010;-60
2022/10/07 10:23:49;;;;;;;3.17;0.40;;;;;;;21.84;100.00;99648.59;7390270;19;20006;-60
2022/10/07 10:26:40;;;;;;;0.20;0.20;;;;;;;21.80;100.00;99642.50;7388394;19;20382;-60
2022/10/07 10:29:34;;;;;;;0.20;0.20;;;;;;;21.79;100.00;99640.97;7390048;19;20065;-60
2022/10/07 10:32:00;;;;;;;0.20;0.10;;;;;;;21.82;100.00;99628.50;7391363;19;20038;-60
2022/10/07 10:34:53;;;;;;;0.55;0.30;;;;;;;21.63;100.00;99625.19;7396372;19;20048;-60
2022/10/07 10:37:23;;;;;;;0.28;0.20;;;;;;;22.09;100.00;99629.78;7398201;19;20460;-60
2022/10/07 10:40:08;;;;;;;7.97;0.98;;;;;;;22.11;100.00;99632.81;7394314;19;20010;-60
2022/10/07 10:43:25;;;;;;;2.03;0.30;;;;;;;22.08;100.00;99616.94;7398291;19;20018;-59
2022/10/07 10:46:06;;;;;;;8.50;0.32;;;;;;;22.21;100.00;99610.38;7393562;19;20002;-60
2022/10/07 10:48:51;;;;;;;2.70;0.57;;;;;;;22.36;100.00;99611.19;7400738;19;20018;-60
2022/10/07 10:51:39;;;;;;;4.30;0.90;;;;;;;22.54;100.00;99607.22;7395510;19;20010;-59
2022/10/07 10:54:27;;;;;;;1.05;0.38;;;;;;;22.48;100.00;99612.34;7395554;19;20031;-59
2022/10/07 10:57:30;;;;;;;4.47;0.30;;;;;;;22.34;100.00;99601.72;7395422;19;20050;-59
2022/10/07 11:00:16;;;;;;;0.40;0.20;;;;;;;22.31;100.00;99595.06;7393667;19;20013;-59
2022/10/07 11:02:58;;;;;;;0.40;0.40;;;;;;;22.19;100.00;99593.91;7394987;19;20014;-59
2022/10/07 11:05:31;;;;;;;0.47;0.20;;;;;;;22.18;100.00;99591.63;7393134;19;20014;-59
2022/10/07 11:08:19;;;;;;;0.52;0.40;;;;;;;22.09;100.00;99589.34;7398275;19;20341;-60
2022/10/07 11:10:54;;;;;;;0.10;0.10;;;;;;;22.27;100.00;99589.03;7394841;19;20748;-60
2022/10/07 11:13:35;;;;;;;0.63;0.32;;;;;;;22.39;100.00;99595.09;7396602;19;20022;-61
2022/10/07 11:16:10;;;;;;;0.10;0.10;;;;;;;22.49;100.00;99593.22;7394910;19;20400;-60
2022/10/07 11:18:47;;;;;;;0.70;0.15;;;;;;;22.51;100.00;99608.38;7394761;19;20078;-60
2022/10/07 11:21:20;;;;;;;3.95;1.38;;;;;;;22.54;100.00;99601.56;7392810;19;20468;-60
2022/10/07 11:24:26;;;;;;;2.72;0.20;;;;;;;21.63;100.00;99611.03;7394224;19;20073;-61
2022/10/07 11:27:13;;;;;;;0.00;0.00;;;;;;;21.82;100.00;99611.50;7393969;19;20010;-61
2022/10/07 11:30:21;;;;;;;1.33;0.15;;;;;;;21.80;100.00;99609.25;7394321;19;20028;-62
2022/10/07 11:33:06;;;;;;;0.20;0.17;;;;;;;21.44;100.00;99599.19;7393751;19;20010;-62
2022/10/07 11:35:36;;;;;;;0.60;0.32;;;;;;;21.26;100.00;99600.19;7394354;19;20007;-61
2022/10/07 11:38:08;;;;;;;0.15;0.15;;;;;;;21.04;100.00;99613.63;7397476;19;20078;-60
2022/10/07 11:40:44;;;;;;;0.17;0.10;;;;;;;20.89;100.00;99607.06;7391666;19;20467;-63
2022/10/07 11:43:26;;;;;;;0.22;0.00;;;;;;;20.89;100.00;99612.72;7394750;19;20336;-65
2022/10/07 11:46:32;;;;;;;0.77;0.30;;;;;;;20.52;100.00;99613.09;7393295;19;20042;-65
2022/10/07 11:49:14;;;;;;;0.10;0.10;;;;;;;19.94;100.00;99582.25;7392957;19;20106;-64
2022/10/07 11:51:50;;;;;;;0.22;0.13;;;;;;;20.38;100.00;99579.22;7391228;19;20010;-64
2022/10/07 11:54:20;;;;;;;0.10;0.10;;;;;;;20.45;100.00;99580.59;7393320;19;20015;-65
2022/10/07 11:56:50;;;;;;;0.85;0.30;;;;;;;20.60;100.00;99575.09;7395011;19;20011;-67
2022/10/07 11:59:35;;;;;;;0.73;0.10;;;;;;;20.68;100.00;99563.84;7393705;19;20011;-66